Time;durP1;ratioP1;P1;durP2;ratioP2;P2;SDS_P1;SDS_P2;PMS_P1;PMS_P2;Temp;Humidity;BMP_temperature;BMP_pressure;BME280_temperature;BME280_humidity;BME280_pressure;Samples;Min_cycle;Max_cycle;Signal;HPM_P1;HPM_P2
2021/07/03 00:00:09;;;;;;;12.33;11.13;;;15.60;99.90;;;;;;6223088;23;20890;-83
2021/07/03 00:02:35;;;;;;;11.77;10.43;;;15.60;99.90;;;;;;6222997;23;20733;-83
2021/07/03 00:05:02;;;;;;;12.40;10.70;;;15.60;99.90;;;;;;6224129;23;20410;-83
2021/07/03 00:07:29;;;;;;;12.30;11.30;;;15.60;99.90;;;;;;6223260;23;20516;-83
2021/07/03 00:09:57;;;;;;;12.37;11.17;;;15.50;99.90;;;;;;6223181;23;20410;-83
2021/07/03 00:12:24;;;;;;;12.80;11.33;;;15.50;99.90;;;;;;6223302;23;20413;-83
2021/07/03 00:14:50;;;;;;;12.37;11.00;;;15.50;99.90;;;;;;6223896;23;20411;-83
2021/07/03 00:17:17;;;;;;;10.97;9.93;;;15.50;99.90;;;;;;6223326;23;20450;-83
2021/07/03 00:19:44;;;;;;;10.40;9.30;;;15.50;99.90;;;;;;6222623;23;20406;-83
2021/07/03 00:22:11;;;;;;;11.67;10.50;;;15.40;99.90;;;;;;6222685;23;20417;-81
2021/07/03 00:24:37;;;;;;;13.30;10.20;;;15.40;99.90;;;;;;6222893;23;20417;-83
2021/07/03 00:27:06;;;;;;;11.50;10.50;;;15.40;99.90;;;;;;6223085;23;20421;-83
2021/07/03 00:29:32;;;;;;;11.73;10.40;;;15.30;99.90;;;;;;6223617;23;20405;-83
2021/07/03 00:31:59;;;;;;;10.57;9.47;;;15.30;99.90;;;;;;6222795;23;20408;-80
2021/07/03 00:34:26;;;;;;;11.73;10.60;;;15.30;99.90;;;;;;6225079;23;20908;-83
2021/07/03 00:36:53;;;;;;;11.93;9.60;;;15.20;99.90;;;;;;6224112;23;20540;-83
2021/07/03 00:39:20;;;;;;;11.03;10.10;;;15.20;99.90;;;;;;6224319;23;20409;-82
2021/07/03 00:41:46;;;;;;;10.23;9.30;;;15.20;99.90;;;;;;6224052;23;20405;-83
2021/07/03 00:44:25;;;;;;;12.03;9.80;;;15.20;99.90;;;;;;6224887;23;20404;-81
2021/07/03 00:46:52;;;;;;;10.83;9.70;;;15.10;99.90;;;;;;6223831;23;20465;-83
2021/07/03 00:49:19;;;;;;;12.70;11.43;;;15.10;99.90;;;;;;6224746;23;20410;-83
2021/07/03 00:51:46;;;;;;;9.70;8.70;;;15.10;99.90;;;;;;6223978;23;20414;-81
2021/07/03 00:54:13;;;;;;;11.30;10.17;;;15.10;99.90;;;;;;6224165;23;20414;-83
2021/07/03 00:56:40;;;;;;;10.10;9.03;;;15.00;99.90;;;;;;6224091;23;20447;-82
2021/07/03 00:59:07;;;;;;;10.47;9.40;;;15.00;99.90;;;;;;6224665;23;20413;-83
2021/07/03 01:01:35;;;;;;;11.20;10.20;;;15.00;99.90;;;;;;6224062;23;20412;-81
2021/07/03 01:04:02;;;;;;;11.17;10.00;;;15.00;99.90;;;;;;6223590;23;20900;-83
2021/07/03 01:06:29;;;;;;;11.67;10.57;;;15.00;99.90;;;;;;6224689;23;20405;-79
2021/07/03 01:08:56;;;;;;;9.70;8.80;;;15.00;99.90;;;;;;6224068;23;20405;-83
2021/07/03 01:11:27;;;;;;;11.17;10.07;;;15.00;99.90;;;;;;6224033;23;20414;-81
2021/07/03 01:13:54;;;;;;;9.87;8.97;;;15.00;99.90;;;;;;6224323;23;20439;-82
2021/07/03 01:16:21;;;;;;;10.97;9.77;;;15.00;99.90;;;;;;6223584;23;20741;-82
2021/07/03 01:18:49;;;;;;;10.97;9.97;;;14.90;99.90;;;;;;6224473;23;20952;-81
2021/07/03 01:21:17;;;;;;;11.20;8.87;;;14.90;99.90;;;;;;6224485;23;20411;-82
2021/07/03 01:23:45;;;;;;;9.60;8.50;;;14.90;99.90;;;;;;6223664;23;20440;-82
2021/07/03 01:26:12;;;;;;;12.33;10.13;;;14.90;99.90;;;;;;6223859;23;20432;-82
2021/07/03 01:28:38;;;;;;;11.43;10.27;;;14.80;99.90;;;;;;6224690;23;20421;-82
2021/07/03 01:31:06;;;;;;;11.63;10.43;;;14.80;99.90;;;;;;6224238;23;20409;-82
2021/07/03 01:33:33;;;;;;;9.47;8.57;;;14.80;99.90;;;;;;6222702;23;20492;-81
2021/07/03 01:36:00;;;;;;;11.07;9.27;;;14.80;99.90;;;;;;6221819;23;20875;-82
2021/07/03 01:38:27;;;;;;;11.33;10.23;;;14.80;99.90;;;;;;6221282;23;20452;-82
2021/07/03 01:40:56;;;;;;;12.17;10.97;;;14.80;99.90;;;;;;6222109;23;20765;-81
2021/07/03 01:43:25;;;;;;;10.77;9.70;;;14.80;99.90;;;;;;6221926;23;20901;-80
2021/07/03 01:45:53;;;;;;;11.00;9.17;;;14.80;99.90;;;;;;6222712;23;20748;-82
2021/07/03 01:48:27;;;;;;;12.03;10.80;;;14.70;99.90;;;;;;6222956;23;20916;-82
2021/07/03 01:50:54;;;;;;;11.10;9.90;;;14.70;99.90;;;;;;6222618;23;20911;-82
2021/07/03 01:53:21;;;;;;;10.23;9.33;;;14.70;99.90;;;;;;6222089;23;20412;-82
2021/07/03 01:55:48;;;;;;;11.33;10.30;;;14.70;99.90;;;;;;6221581;23;20416;-82
2021/07/03 01:58:21;;;;;;;10.00;9.10;;;14.70;99.90;;;;;;6221957;23;20779;-80
2021/07/03 02:00:48;;;;;;;10.97;9.93;;;14.60;99.90;;;;;;6222451;23;20454;-82
2021/07/03 02:03:15;;;;;;;11.63;10.43;;;14.60;99.90;;;;;;6222436;23;20407;-81
2021/07/03 02:05:42;;;;;;;13.80;9.90;;;14.60;99.90;;;;;;6222554;23;20411;-82
2021/07/03 02:08:10;;;;;;;12.33;10.83;;;14.60;99.90;;;;;;6222397;23;20433;-82
2021/07/03 02:10:37;;;;;;;23.67;12.13;;;14.60;99.90;;;;;;6222186;23;20434;-82
2021/07/03 02:13:03;;;;;;;12.10;10.53;;;14.50;99.90;;;;;;6221876;23;20409;-82
2021/07/03 02:15:32;;;;;;;13.83;10.33;;;14.50;99.90;;;;;;6222509;23;20504;-82
2021/07/03 02:18:00;;;;;;;11.63;9.60;;;14.50;99.90;;;;;;6221759;23;20447;-82
2021/07/03 02:20:27;;;;;;;9.57;8.53;;;14.50;99.90;;;;;;6223035;23;20435;-82
2021/07/03 02:22:53;;;;;;;10.80;9.70;;;14.50;99.90;;;;;;6223948;23;20414;-81
2021/07/03 02:25:21;;;;;;;12.10;9.97;;;14.50;99.90;;;;;;6224203;23;20903;-82
2021/07/03 02:27:49;;;;;;;10.20;9.03;;;14.50;99.90;;;;;;6223271;23;20429;-82
2021/07/03 02:30:18;;;;;;;9.83;8.93;;;14.50;99.90;;;;;;6224033;23;20471;-82
2021/07/03 02:32:47;;;;;;;11.80;10.40;;;14.50;99.90;;;;;;6223462;23;20415;-82
2021/07/03 02:35:15;;;;;;;10.83;9.83;;;14.50;99.90;;;;;;6223501;23;20405;-80
2021/07/03 02:37:41;;;;;;;11.10;10.00;;;14.50;99.90;;;;;;6223764;23;20445;-80
2021/07/03 02:40:12;;;;;;;10.87;9.87;;;14.40;99.90;;;;;;6224071;23;20496;-81
2021/07/03 02:42:39;;;;;;;12.80;10.53;;;14.40;99.90;;;;;;6223832;23;20402;-81
2021/07/03 02:45:09;;;;;;;11.23;10.00;;;14.40;99.90;;;;;;6223513;23;20409;-81
2021/07/03 02:47:35;;;;;;;11.17;10.03;;;14.40;99.90;;;;;;6222982;23;20814;-81
2021/07/03 02:50:04;;;;;;;11.10;10.00;;;14.40;99.90;;;;;;6228914;23;20417;-80
2021/07/03 02:52:31;;;;;;;11.30;10.10;;;14.40;99.90;;;;;;6233548;23;20409;-80
2021/07/03 02:54:58;;;;;;;12.83;10.03;;;14.40;99.90;;;;;;6233246;23;20405;-78
2021/07/03 02:57:25;;;;;;;12.20;10.43;;;14.40;99.90;;;;;;6227671;23;20444;-81
2021/07/03 02:59:52;;;;;;;11.33;10.13;;;14.40;99.90;;;;;;6223338;23;20415;-82
2021/07/03 03:02:18;;;;;;;10.53;9.53;;;14.40;99.90;;;;;;6223384;23;20432;-81
2021/07/03 03:04:45;;;;;;;10.70;9.30;;;14.40;99.90;;;;;;6223602;23;20411;-81
2021/07/03 03:07:13;;;;;;;11.00;9.40;;;14.40;99.90;;;;;;6223526;23;20440;-79
2021/07/03 03:09:40;;;;;;;10.83;9.80;;;14.40;99.90;;;;;;6224356;23;20401;-79
2021/07/03 03:12:07;;;;;;;10.70;9.60;;;14.40;99.90;;;;;;6222868;23;20409;-81
2021/07/03 03:14:34;;;;;;;12.63;9.27;;;14.40;99.90;;;;;;6224606;23;20411;-80
2021/07/03 03:17:01;;;;;;;12.53;11.07;;;14.40;99.90;;;;;;6223941;23;20432;-81
2021/07/03 03:19:28;;;;;;;10.80;9.57;;;14.40;99.90;;;;;;6223455;23;20409;-81
2021/07/03 03:22:00;;;;;;;9.43;8.53;;;14.40;99.90;;;;;;6222717;23;20413;-81
2021/07/03 03:24:28;;;;;;;10.90;9.90;;;14.40;99.90;;;;;;6223004;23;20404;-81
2021/07/03 03:26:55;;;;;;;10.93;9.90;;;14.30;99.90;;;;;;6223577;23;20497;-81
2021/07/03 03:29:21;;;;;;;12.20;11.00;;;14.30;99.90;;;;;;6222613;23;20414;-82
2021/07/03 03:31:48;;;;;;;11.20;9.80;;;14.30;99.90;;;;;;6223321;23;20434;-79
2021/07/03 03:34:15;;;;;;;13.37;11.43;;;14.20;99.90;;;;;;6223514;23;20924;-81
2021/07/03 03:36:42;;;;;;;11.60;10.40;;;14.20;99.90;;;;;;6222820;23;20416;-82
2021/07/03 03:39:08;;;;;;;12.37;11.07;;;14.20;99.90;;;;;;6223795;23;20440;-81
2021/07/03 03:41:36;;;;;;;10.57;9.40;;;14.20;99.90;;;;;;6223364;23;20413;-82
2021/07/03 03:44:03;;;;;;;14.93;10.97;;;14.20;99.90;;;;;;6222973;23;20420;-81
2021/07/03 03:46:30;;;;;;;10.87;9.77;;;14.20;99.90;;;;;;6223270;23;20417;-82
2021/07/03 03:48:57;;;;;;;10.53;9.60;;;14.30;99.90;;;;;;6223140;23;20412;-81
2021/07/03 03:51:24;;;;;;;11.00;9.90;;;14.30;99.90;;;;;;6223029;23;20412;-81
2021/07/03 03:53:50;;;;;;;10.57;9.57;;;14.30;99.90;;;;;;6223169;23;20546;-81
2021/07/03 03:56:17;;;;;;;9.60;8.60;;;14.40;99.90;;;;;;6223439;23;20409;-81
2021/07/03 03:58:45;;;;;;;12.30;11.00;;;14.40;99.90;;;;;;6223365;23;20448;-81
2021/07/03 04:01:12;;;;;;;10.97;9.87;;;14.30;99.90;;;;;;6223403;23;20409;-81
2021/07/03 04:03:38;;;;;;;11.47;10.37;;;14.40;99.90;;;;;;6222606;23;20413;-81
2021/07/03 04:06:05;;;;;;;11.03;10.00;;;14.40;99.90;;;;;;6223069;23;20413;-80
2021/07/03 04:08:32;;;;;;;12.43;11.20;;;14.40;99.90;;;;;;6221867;23;20429;-81
2021/07/03 04:10:58;;;;;;;12.87;11.57;;;14.40;99.90;;;;;;6223119;23;20746;-81
2021/07/03 04:13:25;;;;;;;14.80;11.27;;;14.40;99.90;;;;;;6222801;23;20416;-80
2021/07/03 04:15:53;;;;;;;13.70;12.30;;;14.40;99.90;;;;;;6223655;23;20477;-81
2021/07/03 04:18:20;;;;;;;14.07;12.07;;;14.50;99.90;;;;;;6222629;23;20445;-81
2021/07/03 04:20:47;;;;;;;12.63;11.40;;;14.50;99.90;;;;;;6223113;23;20417;-82
2021/07/03 04:23:14;;;;;;;12.43;10.73;;;14.50;99.90;;;;;;6223280;23;20414;-80
2021/07/03 04:25:40;;;;;;;11.80;10.60;;;14.50;99.90;;;;;;6230507;23;20401;-80
2021/07/03 04:28:07;;;;;;;10.43;9.43;;;14.50;99.90;;;;;;6237688;23;20427;-78
2021/07/03 04:30:34;;;;;;;11.33;10.07;;;14.60;99.90;;;;;;6238981;23;20411;-77
2021/07/03 04:33:02;;;;;;;10.47;9.47;;;14.60;99.90;;;;;;6238906;23;20392;-77
2021/07/03 04:35:29;;;;;;;10.03;8.90;;;14.60;99.90;;;;;;6238814;23;20416;-78
2021/07/03 04:37:56;;;;;;;12.03;10.60;;;14.60;99.90;;;;;;6238727;23;20453;-77
2021/07/03 04:40:22;;;;;;;12.77;11.03;;;14.70;99.90;;;;;;6239019;23;20392;-78
2021/07/03 04:42:49;;;;;;;10.87;9.87;;;14.70;99.90;;;;;;6238217;23;20401;-78
2021/07/03 04:45:16;;;;;;;10.90;9.80;;;14.70;99.90;;;;;;6239137;23;20826;-77
2021/07/03 04:47:43;;;;;;;10.77;9.63;;;14.70;99.90;;;;;;6238950;23;20429;-79
2021/07/03 04:50:12;;;;;;;11.60;10.50;;;14.80;99.90;;;;;;6238372;23;20405;-79
2021/07/03 04:52:39;;;;;;;11.30;9.80;;;14.80;99.90;;;;;;6238344;23;20433;-77
2021/07/03 04:55:07;;;;;;;10.90;9.77;;;14.80;99.90;;;;;;6239153;23;20411;-79
2021/07/03 04:57:34;;;;;;;11.70;10.60;;;14.80;99.90;;;;;;6238399;23;20441;-79
2021/07/03 05:00:01;;;;;;;11.00;9.90;;;14.90;99.90;;;;;;6238630;23;20477;-77
2021/07/03 05:02:28;;;;;;;10.20;9.20;;;14.90;99.90;;;;;;6227202;23;20696;-82
2021/07/03 05:04:54;;;;;;;10.40;9.40;;;15.00;99.90;;;;;;6222498;23;20896;-81
2021/07/03 05:07:22;;;;;;;9.10;8.30;;;15.00;99.90;;;;;;6222633;23;20437;-80
2021/07/03 05:09:49;;;;;;;10.60;9.60;;;15.00;99.90;;;;;;6218541;23;20409;-80
2021/07/03 05:12:16;;;;;;;10.30;9.30;;;15.10;99.90;;;;;;6218631;23;20416;-80
2021/07/03 05:14:43;;;;;;;9.57;8.63;;;15.20;99.90;;;;;;6218777;23;20416;-80
2021/07/03 05:17:10;;;;;;;9.80;8.23;;;15.20;99.90;;;;;;6219253;23;20433;-80
2021/07/03 05:19:36;;;;;;;9.50;8.70;;;15.30;99.90;;;;;;6218719;23;20448;-80
2021/07/03 05:22:04;;;;;;;11.77;10.53;;;15.40;99.90;;;;;;6219557;23;20420;-80
2021/07/03 05:24:32;;;;;;;11.27;10.10;;;15.50;99.90;;;;;;6218538;23;20421;-79
2021/07/03 05:26:58;;;;;;;11.07;9.73;;;15.60;99.90;;;;;;6219142;23;20437;-80
2021/07/03 05:29:25;;;;;;;11.03;9.10;;;15.60;99.90;;;;;;6218523;23;20406;-80
2021/07/03 05:31:52;;;;;;;10.87;9.80;;;15.60;99.90;;;;;;6219164;23;20437;-80
2021/07/03 05:34:18;;;;;;;9.20;8.30;;;15.70;99.90;;;;;;6219717;23;20457;-79
2021/07/03 05:36:47;;;;;;;9.23;8.40;;;15.80;99.90;;;;;;6218592;23;20412;-80
2021/07/03 05:39:14;;;;;;;10.90;9.90;;;15.90;99.90;;;;;;6218687;23;20442;-80
2021/07/03 05:41:43;;;;;;;10.50;9.60;;;16.00;99.90;;;;;;6218432;23;20837;-80
2021/07/03 05:44:09;;;;;;;10.17;9.20;;;16.00;99.90;;;;;;6219278;23;20420;-80
2021/07/03 05:46:37;;;;;;;11.00;9.70;;;16.10;99.90;;;;;;6219382;23;20410;-80
2021/07/03 05:49:04;;;;;;;10.37;9.37;;;16.20;99.90;;;;;;6218661;23;20405;-80
2021/07/03 05:51:31;;;;;;;11.37;10.27;;;16.30;99.90;;;;;;6218358;23;20481;-79
2021/07/03 05:53:57;;;;;;;11.63;10.47;;;16.30;99.90;;;;;;6218531;23;20414;-81
2021/07/03 05:56:26;;;;;;;13.10;10.17;;;16.40;99.90;;;;;;6219504;23;20757;-80
2021/07/03 05:58:54;;;;;;;10.30;9.20;;;16.50;99.90;;;;;;6218733;23;20482;-80
2021/07/03 06:01:21;;;;;;;9.30;8.40;;;16.60;99.90;;;;;;6218903;23;20410;-80
2021/07/03 06:03:48;;;;;;;10.43;8.50;;;16.70;99.90;;;;;;6218694;23;20415;-82
2021/07/03 06:06:14;;;;;;;9.93;8.80;;;16.80;99.90;;;;;;6218189;23;20419;-82
2021/07/03 06:08:41;;;;;;;10.87;9.40;;;16.90;99.90;;;;;;6218711;23;20445;-82
2021/07/03 06:11:08;;;;;;;10.07;9.17;;;17.00;99.90;;;;;;6218994;23;20405;-82
2021/07/03 06:13:35;;;;;;;10.07;9.00;;;17.10;99.90;;;;;;6218555;23;20898;-82
2021/07/03 06:16:04;;;;;;;10.13;9.10;;;17.10;99.90;;;;;;6219457;23;20934;-82
2021/07/03 06:18:30;;;;;;;11.47;10.30;;;17.20;99.90;;;;;;6219397;23;20510;-82
2021/07/03 06:20:57;;;;;;;10.90;9.90;;;17.30;99.90;;;;;;6218059;23;20417;-81
2021/07/03 06:23:25;;;;;;;9.73;8.77;;;17.40;99.90;;;;;;6218179;23;20419;-82
2021/07/03 06:25:51;;;;;;;8.97;8.10;;;17.50;99.90;;;;;;6219251;23;20772;-81
2021/07/03 06:28:18;;;;;;;10.60;9.60;;;17.60;99.90;;;;;;6219368;23;20431;-82
2021/07/03 06:30:45;;;;;;;9.60;8.70;;;17.70;99.90;;;;;;6218877;23;20426;-82
2021/07/03 06:33:13;;;;;;;10.70;9.33;;;17.80;99.90;;;;;;6219392;23;20392;-82
2021/07/03 06:35:40;;;;;;;11.13;10.10;;;17.80;99.90;;;;;;6218625;23;20911;-82
2021/07/03 06:38:06;;;;;;;10.43;9.37;;;18.00;99.90;;;;;;6218682;23;20435;-81
2021/07/03 06:40:33;;;;;;;10.90;9.83;;;18.10;99.90;;;;;;6218696;23;20746;-81
2021/07/03 06:43:00;;;;;;;10.20;8.50;;;18.20;99.90;;;;;;6218221;23;20418;-80
2021/07/03 06:45:27;;;;;;;12.93;9.07;;;18.20;99.90;;;;;;6219287;23;20416;-81
2021/07/03 06:47:53;;;;;;;11.67;10.47;;;18.40;99.90;;;;;;6219700;23;20497;-81
2021/07/03 06:50:21;;;;;;;9.07;8.27;;;18.50;99.90;;;;;;6219299;23;20416;-81
2021/07/03 06:52:48;;;;;;;8.30;7.60;;;18.60;99.90;;;;;;6219024;23;20408;-81
2021/07/03 06:55:15;;;;;;;11.50;9.37;;;18.70;99.90;;;;;;6219242;23;20434;-81
2021/07/03 06:57:42;;;;;;;11.13;9.63;;;18.90;99.90;;;;;;6218632;23;20435;-80
2021/07/03 07:00:10;;;;;;;9.50;8.60;;;19.00;99.90;;;;;;6218937;23;20447;-81
2021/07/03 07:02:36;;;;;;;9.17;8.37;;;19.10;99.90;;;;;;6218762;23;20420;-80
2021/07/03 07:05:06;;;;;;;8.17;7.47;;;19.20;99.90;;;;;;6218778;23;20422;-80
2021/07/03 07:07:34;;;;;;;8.40;7.60;;;19.20;99.90;;;;;;6219754;23;20441;-81
2021/07/03 07:10:01;;;;;;;8.87;7.87;;;19.30;99.90;;;;;;6220741;23;20418;-80
2021/07/03 07:12:27;;;;;;;9.20;8.37;;;19.50;99.90;;;;;;6220024;23;20473;-80
2021/07/03 07:14:54;;;;;;;7.90;7.20;;;19.60;99.90;;;;;;6221169;23;20413;-79
2021/07/03 07:17:21;;;;;;;8.43;7.53;;;19.70;99.90;;;;;;6220028;23;20428;-80
2021/07/03 07:19:48;;;;;;;10.63;8.33;;;19.80;99.90;;;;;;6225264;23;20469;-80
2021/07/03 07:22:14;;;;;;;11.97;8.37;;;19.80;99.90;;;;;;6228333;23;20449;-80
2021/07/03 07:24:43;;;;;;;9.17;8.37;;;19.90;99.90;;;;;;6232864;23;20500;-82
2021/07/03 07:27:10;;;;;;;8.73;7.87;;;20.00;99.90;;;;;;6220701;23;20435;-81
2021/07/03 07:29:36;;;;;;;7.33;6.63;;;20.10;99.90;;;;;;6220266;23;20409;-82
2021/07/03 07:32:04;;;;;;;9.10;8.23;;;20.20;99.90;;;;;;6220160;23;20912;-82
2021/07/03 07:34:30;;;;;;;7.77;6.90;;;20.20;99.90;;;;;;6220800;23;20419;-82
2021/07/03 07:36:57;;;;;;;7.93;7.07;;;20.30;99.90;;;;;;6220580;23;20433;-82
2021/07/03 07:39:24;;;;;;;10.57;7.63;;;20.50;99.90;;;;;;6220130;23;20441;-82
2021/07/03 07:41:52;;;;;;;8.60;7.80;;;20.50;99.90;;;;;;6220034;23;20413;-82
2021/07/03 07:44:19;;;;;;;9.87;8.20;;;20.60;99.90;;;;;;6220346;23;20413;-82
2021/07/03 07:46:45;;;;;;;7.30;6.70;;;20.70;99.90;;;;;;6220493;23;20409;-82
2021/07/03 07:49:12;;;;;;;7.40;6.80;;;20.70;99.90;;;;;;6221024;23;20410;-82
2021/07/03 07:51:39;;;;;;;7.50;6.67;;;20.70;99.90;;;;;;6220522;23;20658;-84
2021/07/03 07:54:06;;;;;;;6.53;5.93;;;20.80;99.90;;;;;;6221385;23;20409;-83
2021/07/03 07:56:32;;;;;;;8.30;7.60;;;20.80;99.90;;;;;;6221810;23;20413;-84
2021/07/03 07:59:01;;;;;;;8.50;7.40;;;20.80;99.70;;;;;;6221673;23;20456;-83
2021/07/03 08:01:27;;;;;;;7.70;7.00;;;20.90;99.20;;;;;;6221472;23;20419;-83
2021/07/03 08:03:54;;;;;;;8.23;7.43;;;21.00;99.80;;;;;;6222146;23;20411;-83
2021/07/03 08:06:21;;;;;;;9.23;7.10;;;21.00;99.60;;;;;;6222166;23;20420;-84
2021/07/03 08:08:47;;;;;;;7.20;6.53;;;21.10;99.60;;;;;;6221876;23;20432;-84
2021/07/03 08:11:14;;;;;;;8.13;7.40;;;21.20;99.60;;;;;;6222463;23;20418;-84
2021/07/03 08:13:41;;;;;;;8.50;6.57;;;21.20;99.80;;;;;;6221672;23;20412;-83
2021/07/03 08:16:09;;;;;;;7.77;7.07;;;21.30;99.90;;;;;;6221707;23;20416;-83
2021/07/03 08:18:36;;;;;;;9.03;8.33;;;21.40;99.80;;;;;;6221914;23;20434;-83
2021/07/03 08:21:03;;;;;;;8.17;7.47;;;21.40;99.70;;;;;;6220980;23;20409;-83
2021/07/03 08:23:30;;;;;;;7.73;6.80;;;21.50;99.90;;;;;;6219556;23;20421;-85
2021/07/03 08:25:57;;;;;;;8.67;7.90;;;21.60;99.90;;;;;;6218048;23;20410;-84
2021/07/03 08:28:24;;;;;;;8.53;7.73;;;21.70;99.30;;;;;;6218096;23;20429;-84
2021/07/03 08:30:50;;;;;;;8.67;7.87;;;21.70;98.90;;;;;;6217547;23;20934;-84
2021/07/03 08:33:19;;;;;;;7.57;6.70;;;21.80;99.20;;;;;;6216609;23;20410;-84
2021/07/03 08:35:45;;;;;;;6.90;6.30;;;21.80;97.80;;;;;;6216711;23;20415;-84
2021/07/03 08:38:12;;;;;;;10.60;7.23;;;21.90;96.50;;;;;;6216914;23;20438;-84
2021/07/03 08:40:39;;;;;;;6.80;6.20;;;21.90;96.40;;;;;;6217206;23;20443;-84
2021/07/03 08:43:05;;;;;;;7.30;6.57;;;22.00;96.90;;;;;;6217842;23;20955;-83
2021/07/03 08:45:32;;;;;;;8.27;7.47;;;22.10;97.20;;;;;;6217231;23;20416;-84
2021/07/03 08:47:59;;;;;;;8.00;7.30;;;22.10;96.50;;;;;;6217736;23;20417;-85
2021/07/03 08:50:27;;;;;;;7.60;6.70;;;22.20;96.80;;;;;;6217543;23;20551;-84
2021/07/03 08:52:54;;;;;;;11.60;6.80;;;22.30;97.10;;;;;;6216865;23;20422;-84
2021/07/03 08:55:23;;;;;;;6.97;6.47;;;22.30;94.20;;;;;;6217318;23;20410;-84
2021/07/03 08:57:51;;;;;;;5.83;5.17;;;22.30;94.50;;;;;;6216892;23;20767;-84
2021/07/03 09:00:21;;;;;;;7.07;6.37;;;22.40;94.00;;;;;;6217077;23;20444;-84
2021/07/03 09:02:49;;;;;;;7.50;5.97;;;22.40;93.10;;;;;;6217815;23;20416;-84
2021/07/03 09:05:21;;;;;;;6.37;5.87;;;22.50;92.80;;;;;;6217550;23;20904;-84
2021/07/03 09:07:50;;;;;;;6.20;5.70;;;22.60;93.20;;;;;;6216912;23;20439;-84
2021/07/03 09:10:22;;;;;;;6.60;6.10;;;22.50;92.90;;;;;;6217424;23;20415;-83
2021/07/03 09:12:51;;;;;;;7.63;6.90;;;22.60;93.20;;;;;;6218702;23;20411;-85
2021/07/03 09:15:23;;;;;;;6.23;5.63;;;22.70;93.90;;;;;;6222663;23;20412;-84
2021/07/03 09:17:52;;;;;;;8.90;8.10;;;22.70;95.20;;;;;;6224550;23;20417;-84
2021/07/03 09:20:28;;;;;;;7.10;6.50;;;22.80;95.30;;;;;;6226294;23;20453;-85
2021/07/03 09:23:02;;;;;;;8.23;6.60;;;22.80;93.60;;;;;;6222665;23;20463;-84
2021/07/03 09:25:29;;;;;;;7.20;6.50;;;22.90;94.10;;;;;;6220434;23;20432;-85
2021/07/03 09:27:57;;;;;;;7.87;6.80;;;22.90;93.90;;;;;;6218236;23;20490;-84
2021/07/03 09:30:24;;;;;;;7.00;6.40;;;23.00;94.90;;;;;;6218668;23;20726;-84
2021/07/03 09:32:53;;;;;;;7.40;6.13;;;23.10;94.70;;;;;;6218941;23;20420;-85
2021/07/03 09:35:20;;;;;;;6.57;5.93;;;23.20;94.10;;;;;;6221394;23;20408;-85
2021/07/03 09:37:48;;;;;;;5.90;5.40;;;23.30;94.10;;;;;;6223329;23;20502;-84
2021/07/03 09:40:18;;;;;;;6.20;5.70;;;23.40;92.40;;;;;;6222185;23;20546;-85
2021/07/03 09:42:45;;;;;;;6.67;6.17;;;23.50;92.70;;;;;;6221390;23;20440;-83
2021/07/03 09:45:12;;;;;;;6.53;5.93;;;23.60;92.10;;;;;;6219027;23;20440;-85
2021/07/03 09:47:39;;;;;;;7.70;7.10;;;23.60;91.60;;;;;;6219716;23;20433;-85
2021/07/03 09:50:09;;;;;;;6.87;6.30;;;23.60;91.00;;;;;;6220178;23;20792;-85
2021/07/03 09:52:37;;;;;;;6.07;5.57;;;23.70;92.40;;;;;;6220869;23;20427;-86
2021/07/03 09:55:05;;;;;;;7.00;6.30;;;23.80;92.50;;;;;;6222385;23;20409;-84
2021/07/03 09:57:35;;;;;;;6.53;6.03;;;23.90;91.00;;;;;;6217422;23;20432;-87
2021/07/03 10:00:04;;;;;;;6.43;5.93;;;24.00;92.50;;;;;;6220633;23;20432;-84
2021/07/03 10:02:33;;;;;;;5.43;4.90;;;24.10;91.90;;;;;;6218013;23;20496;-83
2021/07/03 10:04:59;;;;;;;5.53;5.00;;;24.20;90.30;;;;;;6221082;23;20416;-83
2021/07/03 10:07:35;;;;;;;6.37;5.93;;;24.30;89.50;;;;;;6220149;23;20437;-84
2021/07/03 10:10:06;;;;;;;6.90;6.30;;;24.40;89.80;;;;;;6221383;23;20396;-85
2021/07/03 10:12:38;;;;;;;5.93;5.37;;;24.40;91.30;;;;;;6220735;23;20392;-85
2021/07/03 10:15:06;;;;;;;7.43;6.87;;;24.60;91.80;;;;;;6221038;23;20400;-84
2021/07/03 10:17:36;;;;;;;7.13;6.53;;;24.60;89.20;;;;;;6221039;23;20504;-85
2021/07/03 10:20:05;;;;;;;6.60;5.80;;;24.70;90.20;;;;;;6222132;23;20441;-85
2021/07/03 10:22:33;;;;;;;5.73;5.23;;;24.70;87.80;;;;;;6222687;23;20404;-87
2021/07/03 10:25:12;;;;;;;6.60;6.00;;;24.80;86.80;;;;;;6221854;23;20484;-85
2021/07/03 10:27:50;;;;;;;5.70;5.20;;;24.90;84.60;;;;;;6221577;23;20429;-85
2021/07/03 10:30:24;;;;;;;5.23;4.83;;;25.00;85.50;;;;;;6222326;23;20432;-85
2021/07/03 10:32:55;;;;;;;7.50;6.90;;;25.10;87.10;;;;;;6221081;23;20374;-85
2021/07/03 10:35:23;;;;;;;5.73;4.90;;;25.30;88.10;;;;;;6221892;23;20391;-86
2021/07/03 10:37:49;;;;;;;5.90;5.40;;;25.40;83.10;;;;;;6223404;23;20430;-85
2021/07/03 10:40:18;;;;;;;6.67;6.07;;;25.60;85.40;;;;;;6222471;23;20441;-86
2021/07/03 10:42:46;;;;;;;5.30;4.80;;;25.50;80.40;;;;;;6224609;23;20726;-85
2021/07/03 10:45:15;;;;;;;5.80;5.30;;;25.50;80.10;;;;;;6222497;23;20398;-85
2021/07/03 10:47:42;;;;;;;5.60;5.20;;;25.50;78.40;;;;;;6222686;23;20432;-84
2021/07/03 10:50:19;;;;;;;5.60;5.20;;;25.60;78.40;;;;;;6222291;23;20418;-85
2021/07/03 10:52:46;;;;;;;5.70;5.20;;;25.70;79.80;;;;;;6222275;23;20389;-84
2021/07/03 10:55:14;;;;;;;6.00;5.50;;;25.80;79.50;;;;;;6223944;23;20493;-85
2021/07/03 10:57:43;;;;;;;5.50;5.10;;;26.00;77.90;;;;;;6222835;23;20762;-87
2021/07/03 11:00:12;;;;;;;5.83;5.33;;;26.10;79.30;;;;;;6222101;23;20445;-85
2021/07/03 11:02:40;;;;;;;5.40;5.00;;;26.20;78.60;;;;;;6222634;23;20417;-85
2021/07/03 11:05:13;;;;;;;5.60;5.20;;;26.30;77.90;;;;;;6221436;23;20417;-84
2021/07/03 11:07:41;;;;;;;4.87;4.47;;;26.60;76.20;;;;;;6221124;23;20443;-85
2021/07/03 11:10:13;;;;;;;6.33;5.83;;;26.70;74.70;;;;;;6221969;23;20443;-85
2021/07/03 11:12:47;;;;;;;5.37;4.87;;;26.90;72.30;;;;;;6221102;23;20402;-86
2021/07/03 11:15:17;;;;;;;5.67;5.30;;;27.20;80.30;;;;;;6220745;23;20419;-85
2021/07/03 11:17:44;;;;;;;5.57;5.07;;;27.70;78.50;;;;;;6220421;23;20431;-85
2021/07/03 11:20:22;;;;;;;4.67;4.27;;;28.20;71.40;;;;;;6223741;23;20453;-85
2021/07/03 11:22:49;;;;;;;5.57;5.07;;;28.60;69.70;;;;;;6222425;23;20447;-86
2021/07/03 11:25:25;;;;;;;4.90;4.50;;;29.20;71.40;;;;;;6223763;23;20413;-85
2021/07/03 12:01:27;;;;;;;5.57;5.20;;;35.40;48.90;;;;;;6229404;23;20421;-85
2021/07/03 12:03:57;;;;;;;5.97;5.57;;;35.70;47.70;;;;;;6223681;23;20808;-84
2021/07/03 12:06:24;;;;;;;5.47;5.17;;;35.70;46.40;;;;;;6220472;23;20441;-85
2021/07/03 12:08:52;;;;;;;4.80;4.43;;;35.90;44.90;;;;;;6220279;23;20465;-85
2021/07/03 12:25:17;;;;;;;5.10;4.80;;;38.00;41.60;;;;;;5849428;24;20496;-82
2021/07/03 12:28:34;;;;;;;5.20;4.83;;;38.30;39.80;;;;;;6051377;23;20469;-85
2021/07/03 12:38:18;;;;;;;5.60;5.20;;;39.40;38.10;;;;;;5979419;23;20428;-85
2021/07/03 12:41:29;;;;;;;5.43;5.00;;;39.80;35.30;;;;;;6224703;23;20911;-85
2021/07/03 12:44:18;;;;;;;4.93;4.63;;;39.90;33.90;;;;;;6126461;23;20424;-85
2021/07/03 12:47:19;;;;;;;5.33;5.00;;;40.00;33.60;;;;;;6143795;23;20413;-85
2021/07/03 12:52:46;;;;;;;5.03;4.70;;;38.00;34.00;;;;;;6223583;23;20496;-82
2021/07/03 12:55:19;;;;;;;5.47;5.07;;;37.10;37.30;;;;;;6226264;23;20437;-82
2021/07/03 12:57:48;;;;;;;5.17;4.87;;;36.90;37.80;;;;;;6226640;23;20485;-83
2021/07/03 13:00:17;;;;;;;4.93;4.63;;;36.40;36.60;;;;;;6223703;23;20415;-82
2021/07/03 13:02:44;;;;;;;5.23;4.87;;;35.40;36.20;;;;;;6223531;23;20405;-84
2021/07/03 13:05:11;;;;;;;4.73;4.43;;;34.90;38.70;;;;;;6224999;23;20738;-83
2021/07/03 13:07:38;;;;;;;6.60;6.20;;;34.40;40.20;;;;;;6225454;23;20442;-84
2021/07/03 13:10:07;;;;;;;5.60;5.13;;;34.00;40.80;;;;;;6230912;23;20391;-82
2021/07/03 13:12:33;;;;;;;4.77;4.37;;;33.70;41.80;;;;;;6231971;23;20396;-84
2021/07/03 13:15:00;;;;;;;5.20;4.77;;;33.60;42.30;;;;;;6232106;23;20507;-83
2021/07/03 13:17:49;;;;;;;6.60;4.90;;;33.50;41.40;;;;;;6185410;23;20457;-83
2021/07/03 13:20:16;;;;;;;4.40;4.10;;;33.30;41.90;;;;;;6222732;23;20408;-81
2021/07/03 13:22:42;;;;;;;5.00;4.60;;;33.10;41.60;;;;;;6220328;23;20448;-84
2021/07/03 13:25:10;;;;;;;4.00;3.80;;;33.20;41.70;;;;;;6218992;23;20423;-83
2021/07/03 13:27:37;;;;;;;7.87;7.17;;;33.20;41.40;;;;;;6220011;23;20423;-82
2021/07/03 13:30:05;;;;;;;5.20;4.80;;;33.20;43.60;;;;;;6220958;23;20407;-86
2021/07/03 13:32:32;;;;;;;5.83;5.37;;;33.30;41.10;;;;;;6222063;23;20425;-85
2021/07/03 13:35:00;;;;;;;5.60;5.07;;;33.30;42.20;;;;;;6220872;23;20408;-86
2021/07/03 13:37:27;;;;;;;9.30;6.87;;;33.40;43.10;;;;;;6220592;23;20435;-85
2021/07/03 13:39:54;;;;;;;5.37;4.90;;;33.70;44.10;;;;;;6220479;23;20416;-85
2021/07/03 13:42:22;;;;;;;5.73;5.17;;;34.30;41.10;;;;;;6219968;23;20412;-87